Time;durP1;ratioP1;P1;durP2;ratioP2;P2;SDS_P1;SDS_P2;PMS_P1;PMS_P2;Temp;Humidity;BMP_temperature;BMP_pressure;BME280_temperature;BME280_humidity;BME280_pressure;Samples;Min_cycle;Max_cycle;Signal;HPM_P1;HPM_P2
2022/04/23 00:00:12;;;;;;;3.17;2.87;;;10.40;99.90;;;;;;4958406;29;20627;-87
2022/04/23 00:02:39;;;;;;;3.20;2.90;;;10.40;99.90;;;;;;4941177;29;20516;-87
2022/04/23 00:05:05;;;;;;;2.90;2.50;;;10.30;99.90;;;;;;4957106;29;20652;-86
2022/04/23 00:07:31;;;;;;;4.13;3.13;;;10.30;99.90;;;;;;4958246;29;20169;-87
2022/04/23 00:09:56;;;;;;;4.00;3.00;;;10.20;99.90;;;;;;4952740;29;20251;-86
2022/04/23 00:12:23;;;;;;;3.47;3.07;;;10.20;99.90;;;;;;4938666;29;20213;-87
2022/04/23 00:14:50;;;;;;;3.35;3.05;;;10.10;99.90;;;;;;4938983;29;20174;-86
2022/04/23 00:17:15;;;;;;;4.40;2.87;;;10.10;99.90;;;;;;4939238;29;20174;-87
2022/04/23 00:19:44;;;;;;;3.43;3.00;;;10.10;99.90;;;;;;4938803;29;20244;-87
2022/04/23 00:22:09;;;;;;;4.07;3.10;;;10.10;99.90;;;;;;4938874;29;20185;-86
2022/04/23 00:24:35;;;;;;;3.33;3.03;;;10.00;99.90;;;;;;4937864;29;20213;-87
2022/04/23 00:27:01;;;;;;;4.87;2.97;;;9.90;99.90;;;;;;4937437;29;20181;-86
2022/04/23 00:29:28;;;;;;;5.43;3.43;;;9.90;99.90;;;;;;4936762;29;20186;-86
2022/04/23 00:31:54;;;;;;;3.87;3.03;;;9.90;99.90;;;;;;4937437;29;20272;-86
2022/04/23 00:34:19;;;;;;;3.43;3.13;;;9.90;99.90;;;;;;4938628;29;20273;-88
2022/04/23 00:36:45;;;;;;;4.53;3.00;;;9.80;99.90;;;;;;4938692;29;20177;-87
2022/04/23 00:41:51;;;;;;;3.97;3.57;;;9.70;99.90;;;;;;5076860;23;20243;-87
2022/04/23 00:44:17;;;;;;;7.20;3.73;;;9.70;99.90;;;;;;4973330;28;20239;-89
2022/04/23 00:46:44;;;;;;;3.20;2.90;;;9.60;99.90;;;;;;4973476;28;20165;-86
2022/04/23 00:49:11;;;;;;;3.80;3.23;;;9.60;99.90;;;;;;4965075;28;20576;-86
2022/04/23 00:51:39;;;;;;;4.07;3.53;;;9.60;99.90;;;;;;4953632;29;20252;-88
2022/04/23 00:54:07;;;;;;;4.07;3.67;;;9.50;99.90;;;;;;4953510;29;20622;-87
2022/04/23 00:56:42;;;;;;;4.27;3.50;;;9.50;99.90;;;;;;4953471;29;20169;-87
2022/04/23 00:59:09;;;;;;;4.10;3.40;;;9.50;99.90;;;;;;4953519;28;20204;-85
2022/04/23 01:01:35;;;;;;;3.80;3.40;;;9.40;99.90;;;;;;4953722;29;20177;-87
2022/04/23 01:04:02;;;;;;;5.27;3.50;;;9.40;99.90;;;;;;4953732;29;20546;-87
2022/04/23 01:06:33;;;;;;;4.23;3.60;;;9.40;99.90;;;;;;4953518;29;20172;-86
2022/04/23 01:09:04;;;;;;;4.23;3.83;;;9.30;99.90;;;;;;4953330;28;20200;-88
2022/04/23 01:11:30;;;;;;;4.40;3.97;;;9.30;99.90;;;;;;4953432;29;20181;-86
2022/04/23 01:13:56;;;;;;;4.57;4.00;;;9.30;99.90;;;;;;4953548;29;20173;-89
2022/04/23 01:16:23;;;;;;;4.43;3.93;;;9.20;99.90;;;;;;4953820;29;20176;-88
2022/04/23 01:18:49;;;;;;;4.50;4.10;;;9.20;99.90;;;;;;4953160;29;20577;-86
2022/04/23 01:21:15;;;;;;;6.40;4.17;;;9.20;99.90;;;;;;4953296;29;20174;-88
2022/04/23 01:23:42;;;;;;;4.23;3.83;;;9.20;99.90;;;;;;4953364;29;20201;-87
2022/04/23 01:26:09;;;;;;;4.83;4.17;;;9.10;99.90;;;;;;4953163;29;20173;-86
2022/04/23 01:28:37;;;;;;;5.67;4.40;;;9.10;99.90;;;;;;4953239;29;20610;-85
2022/04/23 01:31:04;;;;;;;4.77;4.27;;;9.10;99.90;;;;;;4953677;29;20166;-85
2022/04/23 01:33:38;;;;;;;5.17;4.60;;;9.10;99.90;;;;;;4953618;29;20220;-86
2022/04/23 01:36:05;;;;;;;7.07;5.10;;;9.00;99.90;;;;;;4953547;29;20165;-88
2022/04/23 01:38:31;;;;;;;6.37;5.03;;;9.00;99.90;;;;;;4953197;29;20205;-85
2022/04/23 01:40:56;;;;;;;5.03;4.53;;;8.90;99.90;;;;;;4941194;29;20292;-88
2022/04/23 01:43:22;;;;;;;5.67;5.07;;;8.90;99.90;;;;;;4934105;29;20209;-84
2022/04/23 01:45:48;;;;;;;6.23;5.07;;;8.90;99.90;;;;;;4934071;29;20268;-88
2022/04/23 01:48:13;;;;;;;6.03;5.17;;;8.90;99.90;;;;;;4933619;29;20178;-87
2022/04/23 01:50:39;;;;;;;7.37;5.60;;;8.90;99.90;;;;;;4934046;29;20182;-87
2022/04/23 01:53:05;;;;;;;5.77;5.17;;;8.80;99.90;;;;;;4936977;29;20298;-86
2022/04/23 01:55:31;;;;;;;7.40;5.63;;;8.80;99.90;;;;;;4937958;29;20552;-87
2022/04/23 01:57:57;;;;;;;7.17;5.90;;;8.80;99.90;;;;;;4938059;29;20257;-87
2022/04/23 02:00:22;;;;;;;6.77;5.63;;;8.70;99.90;;;;;;4937890;29;20202;-86
2022/04/23 02:02:48;;;;;;;6.30;5.67;;;8.70;99.90;;;;;;4938000;29;20170;-88
2022/04/23 02:05:14;;;;;;;6.67;5.73;;;8.60;99.90;;;;;;4937798;29;20209;-88
2022/04/23 02:07:41;;;;;;;6.70;5.50;;;8.60;99.90;;;;;;4937819;29;20529;-87
2022/04/23 02:10:10;;;;;;;5.80;5.20;;;8.60;99.90;;;;;;4937641;29;20277;-86
2022/04/23 02:12:38;;;;;;;6.07;5.37;;;8.60;99.90;;;;;;4937690;29;20186;-86
2022/04/23 02:15:07;;;;;;;6.60;5.67;;;8.50;99.90;;;;;;4937951;29;20552;-88
2022/04/23 02:17:43;;;;;;;5.90;5.30;;;8.50;99.90;;;;;;4937439;29;20182;-88
2022/04/23 02:20:15;;;;;;;7.93;6.47;;;8.40;99.90;;;;;;4937403;29;20201;-86
2022/04/23 02:22:41;;;;;;;5.87;5.10;;;8.40;99.90;;;;;;4937515;29;20194;-87
2022/04/23 02:25:08;;;;;;;6.97;6.17;;;8.40;99.90;;;;;;4937837;29;20217;-85
2022/04/23 02:27:45;;;;;;;6.63;5.97;;;8.40;99.90;;;;;;4937357;29;20177;-86
2022/04/23 02:30:13;;;;;;;7.43;5.53;;;8.30;99.90;;;;;;4937339;29;20297;-87
2022/04/23 02:32:38;;;;;;;5.93;5.30;;;8.30;99.90;;;;;;4937079;29;20642;-85
2022/04/23 02:35:05;;;;;;;7.57;5.97;;;8.20;99.90;;;;;;4937095;29;20188;-86
2022/04/23 02:37:34;;;;;;;11.13;5.50;;;8.20;99.90;;;;;;4937482;29;20178;-86
2022/04/23 02:40:05;;;;;;;6.50;5.80;;;8.20;99.90;;;;;;4941464;29;20247;-84
2022/04/23 02:42:33;;;;;;;7.00;6.30;;;8.10;99.90;;;;;;4940588;29;20186;-88
2022/04/23 02:45:01;;;;;;;7.77;5.37;;;8.10;99.90;;;;;;4956186;29;20227;-85
2022/04/23 02:47:29;;;;;;;6.33;5.73;;;8.10;99.90;;;;;;4956574;29;20177;-86
2022/04/23 02:49:55;;;;;;;8.13;6.23;;;8.10;99.90;;;;;;4955993;28;20205;-87
2022/04/23 02:52:21;;;;;;;6.23;5.60;;;8.10;99.90;;;;;;4956100;29;20169;-86
2022/04/23 02:54:46;;;;;;;9.87;5.87;;;8.00;99.90;;;;;;4956009;29;20220;-87
2022/04/23 02:57:12;;;;;;;6.50;5.47;;;8.00;99.90;;;;;;4957052;29;20174;-88
2022/04/23 02:59:39;;;;;;;7.67;5.57;;;7.90;99.90;;;;;;4955929;28;20201;-86
2022/04/23 03:02:06;;;;;;;7.07;5.90;;;7.90;99.90;;;;;;4956221;29;20176;-86
2022/04/23 03:04:32;;;;;;;7.20;5.87;;;7.80;99.90;;;;;;4956759;28;20189;-86
2022/04/23 03:06:57;;;;;;;7.03;6.20;;;7.80;99.90;;;;;;4941623;29;20225;-85
2022/04/23 03:09:23;;;;;;;6.77;6.03;;;7.70;99.90;;;;;;4936730;29;20285;-85
2022/04/23 03:11:49;;;;;;;6.77;6.07;;;7.70;99.90;;;;;;4938020;29;20540;-86
2022/04/23 03:14:15;;;;;;;8.30;6.37;;;7.70;99.90;;;;;;4937846;29;20180;-89
2022/04/23 03:16:41;;;;;;;7.50;6.30;;;7.70;99.90;;;;;;4937064;29;20186;-85
2022/04/23 03:19:07;;;;;;;8.33;6.53;;;7.70;99.90;;;;;;4936525;29;20198;-86
2022/04/23 03:21:33;;;;;;;6.73;6.03;;;7.70;99.90;;;;;;4936255;29;20174;-92
2022/04/23 03:23:59;;;;;;;7.17;6.20;;;7.70;99.90;;;;;;4936360;29;20197;-84
2022/04/23 03:26:24;;;;;;;7.63;6.40;;;7.60;99.90;;;;;;4936790;29;20519;-86
2022/04/23 03:28:50;;;;;;;7.20;6.50;;;7.60;99.90;;;;;;4936370;29;20204;-87
2022/04/23 03:31:16;;;;;;;8.47;6.67;;;7.50;99.90;;;;;;4936457;29;20169;-88
2022/04/23 03:33:42;;;;;;;7.40;6.40;;;7.50;99.90;;;;;;4936555;29;20170;-85
2022/04/23 03:36:08;;;;;;;7.97;6.70;;;7.50;99.90;;;;;;4936277;29;20174;-86
2022/04/23 03:38:35;;;;;;;6.83;6.10;;;7.40;99.90;;;;;;4936208;29;20257;-89
2022/04/23 03:41:02;;;;;;;7.63;6.90;;;7.40;99.90;;;;;;4936155;29;20229;-88
2022/04/23 03:43:30;;;;;;;9.37;6.80;;;7.40;99.90;;;;;;4936117;29;20210;-87
2022/04/23 03:45:55;;;;;;;8.80;7.07;;;7.40;99.90;;;;;;4936391;29;20174;-85
2022/04/23 03:48:21;;;;;;;8.27;7.17;;;7.30;99.90;;;;;;4936253;29;20177;-85
2022/04/23 03:50:48;;;;;;;9.23;7.10;;;7.30;99.90;;;;;;4935933;29;20192;-89
2022/04/23 03:53:15;;;;;;;9.77;6.70;;;7.20;99.90;;;;;;4936036;29;20178;-85
2022/04/23 03:55:41;;;;;;;6.97;6.27;;;7.10;99.90;;;;;;4936077;29;20238;-86
2022/04/23 03:58:07;;;;;;;7.50;6.73;;;7.10;99.90;;;;;;4936172;29;20958;-88
2022/04/23 04:00:34;;;;;;;8.20;7.07;;;7.10;99.90;;;;;;4936542;29;20206;-85
2022/04/23 04:03:00;;;;;;;8.47;6.90;;;7.00;99.90;;;;;;4935699;29;20185;-85
2022/04/23 04:05:26;;;;;;;8.40;7.00;;;7.00;99.90;;;;;;4937548;29;20748;-88
2022/04/23 04:07:52;;;;;;;9.47;7.13;;;7.00;99.90;;;;;;4955039;29;20180;-85
2022/04/23 04:10:20;;;;;;;9.50;7.60;;;7.00;99.90;;;;;;4954909;28;20208;-86
2022/04/23 04:12:46;;;;;;;12.43;7.83;;;6.90;99.90;;;;;;4954598;29;20192;-86
2022/04/23 04:15:15;;;;;;;10.03;7.30;;;6.90;99.90;;;;;;4954261;28;20188;-88
2022/04/23 04:17:41;;;;;;;9.00;7.87;;;6.90;99.90;;;;;;4954641;29;20656;-87
2022/04/23 04:20:17;;;;;;;9.17;7.97;;;6.90;99.90;;;;;;4954889;28;20213;-86
2022/04/23 04:22:44;;;;;;;10.13;8.37;;;6.90;99.90;;;;;;4955057;29;20181;-90
2022/04/23 04:25:12;;;;;;;10.23;8.07;;;6.80;99.90;;;;;;4955060;29;20209;-88
2022/04/23 04:27:38;;;;;;;9.27;7.87;;;6.90;99.90;;;;;;4955275;29;20176;-90
2022/04/23 04:30:07;;;;;;;9.53;8.00;;;6.80;99.90;;;;;;4954893;28;20293;-88
2022/04/23 04:32:33;;;;;;;10.47;8.10;;;6.80;99.90;;;;;;4954892;29;20276;-89
2022/04/23 04:34:59;;;;;;;9.10;8.10;;;6.80;99.90;;;;;;4954761;29;20210;-91
2022/04/23 04:37:25;;;;;;;10.67;8.17;;;6.80;99.90;;;;;;4937360;29;20277;-89
2022/04/23 04:39:50;;;;;;;10.70;8.20;;;6.80;99.90;;;;;;4936078;29;20205;-91
2022/04/23 04:42:16;;;;;;;9.80;8.43;;;6.80;99.90;;;;;;4935346;29;20182;-90
2022/04/23 04:44:42;;;;;;;9.63;8.10;;;6.80;99.90;;;;;;4935082;29;20285;-90
2022/04/23 04:47:09;;;;;;;9.70;8.00;;;6.80;99.90;;;;;;4935696;29;20253;-89
2022/04/23 04:49:36;;;;;;;9.73;8.10;;;6.80;99.90;;;;;;4935435;29;20205;-89
2022/04/23 04:52:02;;;;;;;11.57;8.00;;;6.80;99.90;;;;;;4935155;29;20185;-90
2022/04/23 04:54:28;;;;;;;11.63;8.00;;;6.90;99.90;;;;;;4935316;29;20657;-89
2022/04/23 04:56:56;;;;;;;8.73;7.83;;;6.90;99.90;;;;;;4935133;29;20182;-90
2022/04/23 04:59:22;;;;;;;11.17;9.30;;;6.90;99.90;;;;;;4935019;29;20700;-87
2022/04/23 05:01:49;;;;;;;9.30;8.27;;;7.00;99.90;;;;;;4935157;29;20273;-90
2022/04/23 05:04:15;;;;;;;10.13;8.23;;;7.10;99.90;;;;;;4934802;29;20198;-90
2022/04/23 05:06:41;;;;;;;10.67;8.60;;;7.10;99.90;;;;;;4948059;29;20196;-90
2022/04/23 05:09:06;;;;;;;9.63;8.20;;;7.10;99.90;;;;;;4955665;29;20212;-90
2022/04/23 05:11:32;;;;;;;10.03;8.27;;;7.20;99.90;;;;;;4954284;29;20180;-87
2022/04/23 05:13:58;;;;;;;9.83;8.53;;;7.30;99.90;;;;;;4954425;29;20181;-92
2022/04/23 05:16:24;;;;;;;11.47;8.90;;;7.30;99.90;;;;;;4953897;29;20177;-88
2022/04/23 05:18:50;;;;;;;9.17;7.63;;;7.30;99.90;;;;;;4936681;29;20206;-89
2022/04/23 05:21:16;;;;;;;9.47;8.13;;;7.40;99.90;;;;;;4934653;29;20186;-91
2022/04/23 05:23:41;;;;;;;9.63;8.17;;;7.40;99.90;;;;;;4934735;29;20716;-89
2022/04/23 05:26:09;;;;;;;9.93;8.57;;;7.40;99.90;;;;;;4934906;29;20174;-89
2022/04/23 05:28:35;;;;;;;11.63;8.33;;;7.50;99.90;;;;;;4934708;29;20205;-90
2022/04/23 05:31:04;;;;;;;9.57;8.47;;;7.50;99.90;;;;;;4935870;29;20172;-89
2022/04/23 05:33:30;;;;;;;12.47;9.03;;;7.60;99.90;;;;;;4934664;29;20184;-87
2022/04/23 05:35:56;;;;;;;10.13;8.50;;;7.60;99.90;;;;;;4940734;29;20277;-91
2022/04/23 05:38:23;;;;;;;10.33;9.13;;;7.60;99.90;;;;;;4953751;29;20173;-88
2022/04/23 05:40:49;;;;;;;10.13;8.70;;;7.70;99.90;;;;;;4953801;29;20700;-90
2022/04/23 05:43:18;;;;;;;9.30;8.40;;;7.70;99.90;;;;;;4940101;29;20190;-87
2022/04/23 05:45:44;;;;;;;11.43;8.90;;;7.70;99.90;;;;;;4934381;29;20177;-86
2022/04/23 05:48:10;;;;;;;9.70;8.70;;;7.70;99.90;;;;;;4934440;29;20181;-89
2022/04/23 05:50:36;;;;;;;9.27;8.27;;;7.80;99.90;;;;;;4934865;29;20182;-87
2022/04/23 05:53:02;;;;;;;9.57;8.50;;;7.80;99.90;;;;;;4934718;29;20180;-89
2022/04/23 05:55:28;;;;;;;10.40;8.67;;;7.90;99.90;;;;;;4934486;29;20178;-90
2022/04/23 05:57:54;;;;;;;9.67;8.67;;;8.00;99.90;;;;;;4934439;29;20178;-89
2022/04/23 06:00:20;;;;;;;11.40;8.80;;;8.10;99.90;;;;;;4934618;29;20206;-91
2022/04/23 06:02:46;;;;;;;10.97;9.37;;;8.20;99.90;;;;;;4934468;29;20193;-91
2022/04/23 06:05:12;;;;;;;10.93;9.07;;;8.20;99.90;;;;;;4936005;29;20197;-88
2022/04/23 06:07:38;;;;;;;11.63;9.27;;;8.30;99.90;;;;;;4934473;29;20607;-89
2022/04/23 06:10:05;;;;;;;11.80;9.17;;;8.30;99.90;;;;;;4934753;29;20253;-90
2022/04/23 06:12:31;;;;;;;11.37;9.03;;;8.40;99.90;;;;;;4934884;29;20173;-89
2022/04/23 06:14:58;;;;;;;9.57;8.57;;;8.50;99.90;;;;;;4934387;29;20218;-90
2022/04/23 06:17:25;;;;;;;10.77;9.03;;;8.50;99.90;;;;;;4934634;29;20186;-89
2022/04/23 06:19:51;;;;;;;11.07;8.90;;;8.60;99.90;;;;;;4934630;29;20288;-87
2022/04/23 06:22:17;;;;;;;9.90;8.90;;;8.70;99.90;;;;;;4934131;29;20211;-90
2022/04/23 06:24:42;;;;;;;10.63;8.70;;;8.80;99.90;;;;;;4934786;29;20284;-90
2022/04/23 06:27:08;;;;;;;11.50;9.20;;;8.80;99.90;;;;;;4934549;29;20213;-88
2022/04/23 06:29:36;;;;;;;9.23;8.07;;;8.90;99.90;;;;;;4935330;29;20205;-90
2022/04/23 06:32:03;;;;;;;10.00;8.90;;;9.00;99.90;;;;;;4934372;29;20540;-92
2022/04/23 06:34:29;;;;;;;10.07;8.80;;;9.10;99.90;;;;;;4934335;29;20184;-90
2022/04/23 06:36:54;;;;;;;12.00;8.70;;;9.20;99.90;;;;;;4948770;29;20185;-87
2022/04/23 06:39:20;;;;;;;11.13;9.30;;;9.20;99.90;;;;;;4956120;28;20200;-88
2022/04/23 06:41:46;;;;;;;10.57;8.73;;;9.30;99.90;;;;;;4956957;29;20568;-89
2022/04/23 06:44:12;;;;;;;10.27;8.97;;;9.40;99.90;;;;;;4956922;29;20295;-89
2022/04/23 06:46:37;;;;;;;10.07;8.70;;;9.40;99.90;;;;;;4958135;29;20162;-90
2022/04/23 06:49:05;;;;;;;9.87;8.43;;;9.50;99.90;;;;;;4956896;28;20205;-90
2022/04/23 06:51:37;;;;;;;9.97;8.93;;;9.60;99.90;;;;;;4956613;29;20176;-89
2022/04/23 06:54:03;;;;;;;11.60;9.27;;;9.80;99.90;;;;;;4956818;29;20177;-90
2022/04/23 06:56:31;;;;;;;10.47;9.13;;;9.90;99.90;;;;;;4957152;29;20189;-89
2022/04/23 06:58:57;;;;;;;11.30;8.80;;;10.00;99.90;;;;;;4956480;28;20208;-89
2022/04/23 07:01:23;;;;;;;9.67;8.67;;;10.10;99.90;;;;;;4958246;29;20165;-90
2022/04/23 07:03:48;;;;;;;11.37;9.00;;;10.10;99.90;;;;;;4956533;29;20251;-91
2022/04/23 07:06:16;;;;;;;11.00;8.90;;;10.20;99.90;;;;;;4949823;29;20174;-89
2022/04/23 07:08:44;;;;;;;10.47;8.77;;;10.30;99.90;;;;;;4956302;28;20197;-88
2022/04/23 07:11:11;;;;;;;10.93;9.07;;;10.30;99.90;;;;;;4956642;29;20320;-88
2022/04/23 07:13:38;;;;;;;9.87;8.30;;;10.40;99.90;;;;;;4956326;29;20185;-89
2022/04/23 07:16:05;;;;;;;9.20;7.90;;;10.60;99.90;;;;;;4956730;29;20188;-90
2022/04/23 07:18:31;;;;;;;10.27;9.00;;;10.70;99.90;;;;;;4956277;28;20216;-90
2022/04/23 07:20:58;;;;;;;8.97;7.90;;;10.80;99.90;;;;;;4956757;29;20188;-90
2022/04/23 07:26:11;;;;;;;10.60;8.40;;;11.10;99.90;;;;;;4957729;29;20541;-93
2022/04/23 07:28:37;;;;;;;10.35;8.38;;;11.40;99.90;;;;;;4956666;28;20193;-90
2022/04/23 07:31:04;;;;;;;9.93;8.27;;;11.40;99.90;;;;;;4956898;29;20184;-89
2022/04/23 07:38:58;;;;;;;9.48;7.55;;;11.70;99.90;;;;;;4957134;29;20248;-88
2022/04/23 07:41:24;;;;;;;9.27;7.93;;;11.80;99.90;;;;;;4956651;29;20252;-91
2022/04/23 07:43:49;;;;;;;9.15;7.57;;;11.90;99.90;;;;;;4955848;29;20212;-90
2022/04/23 07:46:15;;;;;;;8.68;7.40;;;12.10;99.90;;;;;;4955234;29;20184;-88
2022/04/23 07:48:41;;;;;;;9.65;7.90;;;12.20;99.90;;;;;;4955371;28;20568;-88
2022/04/23 07:51:06;;;;;;;9.80;7.72;;;12.20;99.90;;;;;;4952526;29;20677;-88
2022/04/23 07:53:32;;;;;;;9.40;8.40;;;12.20;99.90;;;;;;4936622;29;20681;-89
2022/04/23 07:55:58;;;;;;;8.80;7.68;;;12.30;99.90;;;;;;4936635;29;20175;-87
2022/04/23 07:58:24;;;;;;;9.82;7.80;;;12.20;99.90;;;;;;4953380;28;20245;-88
2022/04/23 08:00:49;;;;;;;8.63;7.50;;;12.30;99.90;;;;;;4955766;29;20177;-91
2022/04/23 08:03:16;;;;;;;11.48;8.20;;;12.40;99.90;;;;;;4955555;29;20197;-90
2022/04/23 08:05:42;;;;;;;10.88;7.32;;;12.40;99.90;;;;;;4956333;29;20193;-90
2022/04/23 08:08:08;;;;;;;9.80;7.65;;;12.30;99.90;;;;;;4956132;29;20174;-88
2022/04/23 08:10:34;;;;;;;9.95;7.38;;;12.30;99.90;;;;;;4956087;29;20197;-89
2022/04/23 08:13:00;;;;;;;7.93;6.28;;;12.40;99.90;;;;;;4956133;29;20192;-90
2022/04/23 08:15:26;;;;;;;8.68;7.10;;;12.60;99.90;;;;;;4955576;29;20637;-88
2022/04/23 08:17:53;;;;;;;12.98;6.93;;;12.80;99.90;;;;;;4956311;29;20239;-88
2022/04/23 08:20:19;;;;;;;8.45;6.88;;;12.80;99.90;;;;;;4956808;29;20201;-89
2022/04/23 08:22:44;;;;;;;8.13;6.90;;;12.70;99.90;;;;;;4956998;29;20185;-90
2022/04/23 08:25:11;;;;;;;7.88;6.60;;;12.80;99.90;;;;;;4956396;29;20664;-90
2022/04/23 08:27:51;;;;;;;8.32;7.45;;;13.00;99.90;;;;;;4945191;29;20186;-89
2022/04/23 08:30:34;;;;;;;7.72;6.43;;;13.10;99.90;;;;;;4937290;29;20201;-92
2022/04/23 08:33:06;;;;;;;7.90;6.70;;;13.10;99.30;;;;;;4937078;29;20540;-90
2022/04/23 08:35:33;;;;;;;7.40;6.70;;;13.10;99.70;;;;;;4937340;29;20188;-90
2022/04/23 08:37:59;;;;;;;7.75;6.38;;;13.20;99.70;;;;;;4937140;29;20181;-89
2022/04/23 08:40:49;;;;;;;7.43;6.63;;;13.30;97.80;;;;;;4937383;29;20237;-89
2022/04/23 08:43:15;;;;;;;7.20;5.95;;;13.30;98.40;;;;;;4936257;29;20768;-90
2022/04/23 08:45:41;;;;;;;8.05;6.05;;;13.40;98.40;;;;;;4936301;29;20662;-91
2022/04/23 08:48:14;;;;;;;6.55;5.85;;;13.50;98.30;;;;;;4937251;29;20185;-90
2022/04/23 08:50:42;;;;;;;6.55;5.72;;;13.50;97.40;;;;;;4936989;29;20174;-91
2022/04/23 08:53:18;;;;;;;7.20;5.65;;;13.40;96.20;;;;;;4936649;29;20182;-89
2022/04/23 08:55:46;;;;;;;7.25;5.32;;;13.60;97.50;;;;;;4937609;29;20188;-90
2022/04/23 08:58:13;;;;;;;6.90;5.35;;;13.50;96.00;;;;;;4952780;28;20184;-88
2022/04/23 09:00:40;;;;;;;5.72;4.40;;;13.70;95.80;;;;;;4956459;28;20176;-88
2022/04/23 09:03:13;;;;;;;4.57;4.00;;;13.90;94.90;;;;;;4956639;29;20185;-88
2022/04/23 09:05:39;;;;;;;6.38;4.13;;;14.00;93.90;;;;;;4956511;29;20184;-91
2022/04/23 09:08:07;;;;;;;4.32;3.92;;;14.00;93.80;;;;;;4956650;29;20165;-89
2022/04/23 09:10:46;;;;;;;5.97;4.60;;;14.10;93.80;;;;;;4956346;28;20193;-90
2022/04/23 09:13:32;;;;;;;6.72;4.63;;;14.30;94.60;;;;;;4956048;29;20178;-87
2022/04/23 09:24:45;;;;;;;4.95;4.25;;;14.80;93.40;;;;;;4957859;29;20570;-87
2022/04/23 09:27:12;;;;;;;4.03;3.47;;;14.90;92.60;;;;;;4955717;29;20254;-89
2022/04/23 09:29:38;;;;;;;4.60;4.07;;;14.90;92.60;;;;;;4955791;28;20685;-90
2022/04/23 09:32:13;;;;;;;6.45;3.92;;;14.90;91.50;;;;;;4955854;29;20216;-88
2022/04/23 09:34:39;;;;;;;5.22;4.30;;;14.80;91.20;;;;;;4956056;29;20165;-88
2022/04/23 09:37:05;;;;;;;4.88;4.10;;;14.70;91.20;;;;;;4956096;29;20184;-87
2022/04/23 09:39:35;;;;;;;6.45;5.00;;;14.70;91.50;;;;;;4955632;28;20227;-91
2022/04/23 09:42:19;;;;;;;5.07;4.57;;;14.70;92.60;;;;;;4955469;29;20237;-91
2022/04/23 09:44:47;;;;;;;5.10;4.35;;;14.90;92.00;;;;;;4955591;29;20201;-88
2022/04/23 09:47:31;;;;;;;6.47;4.07;;;15.00;92.10;;;;;;4956007;29;20172;-91
2022/04/23 09:49:57;;;;;;;5.47;4.78;;;15.10;92.20;;;;;;4956146;28;20204;-90
2022/04/23 09:52:29;;;;;;;6.15;4.50;;;14.90;91.10;;;;;;4956119;29;20228;-86
2022/04/23 09:54:56;;;;;;;5.68;4.45;;;15.00;91.30;;;;;;4956984;29;20180;-89
2022/04/23 09:57:23;;;;;;;5.47;4.50;;;14.90;90.70;;;;;;4957496;29;20220;-90
2022/04/23 09:59:52;;;;;;;4.82;4.32;;;15.10;91.80;;;;;;4956794;28;20201;-89
2022/04/23 10:02:21;;;;;;;5.38;4.60;;;15.20;91.50;;;;;;4955649;29;20189;-88
2022/04/23 10:04:48;;;;;;;5.68;4.90;;;15.10;90.90;;;;;;4957435;29;20213;-89
2022/04/23 10:07:18;;;;;;;5.05;4.10;;;15.20;91.50;;;;;;4956895;29;20260;-88
2022/04/23 10:09:48;;;;;;;4.85;3.80;;;15.40;91.40;;;;;;4956116;28;20645;-88
2022/04/23 10:12:19;;;;;;;5.75;3.75;;;15.50;90.20;;;;;;4956156;28;20220;-89
2022/04/23 10:15:11;;;;;;;4.00;3.60;;;15.40;88.50;;;;;;4960089;29;20206;-90
2022/04/23 10:17:40;;;;;;;4.53;3.88;;;15.30;89.00;;;;;;4956193;29;20268;-90
2022/04/23 10:20:09;;;;;;;4.55;3.53;;;15.40;89.20;;;;;;4959725;28;20209;-89
2022/04/23 10:22:56;;;;;;;4.03;3.63;;;15.60;90.30;;;;;;4959958;29;20182;-89
2022/04/23 10:26:13;;;;;;;5.07;3.53;;;15.70;87.10;;;;;;4959947;29;20220;-90
2022/04/23 10:28:44;;;;;;;4.78;3.63;;;15.90;86.10;;;;;;4868180;29;20302;-87
2022/04/23 10:31:15;;;;;;;4.47;3.88;;;16.00;85.80;;;;;;4867691;29;20554;-89
2022/04/23 10:33:51;;;;;;;6.03;4.28;;;16.00;85.10;;;;;;4923347;29;20201;-90
2022/04/23 10:36:22;;;;;;;4.45;4.00;;;15.70;84.80;;;;;;4959884;29;20204;-88
2022/04/23 10:38:53;;;;;;;4.05;3.65;;;15.70;85.70;;;;;;4958912;28;20201;-88
2022/04/23 10:41:24;;;;;;;3.97;3.58;;;15.70;84.50;;;;;;4958332;29;20247;-89
2022/04/23 10:44:04;;;;;;;3.63;3.30;;;15.80;83.80;;;;;;4958602;29;20259;-91
2022/04/23 10:46:45;;;;;;;3.17;2.88;;;15.90;84.30;;;;;;4959038;29;20169;-89
2022/04/23 10:49:14;;;;;;;3.63;3.15;;;16.10;83.70;;;;;;4958282;28;20201;-90
2022/04/23 10:51:50;;;;;;;3.97;3.58;;;16.30;85.60;;;;;;4959682;29;20221;-89
2022/04/23 10:54:19;;;;;;;3.65;3.33;;;16.40;82.40;;;;;;4959694;29;20215;-90
2022/04/23 10:56:50;;;;;;;4.03;3.63;;;16.40;82.50;;;;;;4944286;29;20187;-90
2022/04/23 10:59:38;;;;;;;4.40;3.85;;;16.30;82.70;;;;;;4939638;29;20210;-89
2022/04/23 11:02:08;;;;;;;5.10;2.92;;;16.30;82.50;;;;;;4940795;29;20173;-87
2022/04/23 11:12:14;;;;;;;4.70;3.20;;;16.40;81.90;;;;;;4939780;29;20205;-91
2022/04/23 11:13:35;;;;;;;3.72;3.33;;;16.80;81.70;;;;;;4939662;29;20214;-88
2022/04/23 11:16:24;;;;;;;3.78;3.40;;;16.80;80.30;;;;;;4939081;29;20174;-89
2022/04/23 11:18:54;;;;;;;5.78;3.65;;;16.90;80.30;;;;;;4938488;29;20198;-90
2022/04/23 11:21:26;;;;;;;3.67;3.30;;;16.80;81.40;;;;;;4939304;29;20198;-91
2022/04/23 11:23:56;;;;;;;4.75;3.60;;;17.00;78.40;;;;;;4940684;29;20284;-89
2022/04/23 11:26:44;;;;;;;3.90;3.50;;;16.80;79.20;;;;;;4940808;29;20221;-90
2022/04/23 11:29:10;;;;;;;4.07;3.60;;;16.80;79.50;;;;;;4941049;29;20216;-91
2022/04/23 11:31:36;;;;;;;4.20;3.40;;;16.80;78.00;;;;;;4940186;29;20170;-89
2022/04/23 11:34:04;;;;;;;3.42;3.13;;;17.10;79.90;;;;;;4943017;29;20178;-90
2022/04/23 11:36:35;;;;;;;3.92;3.53;;;17.30;80.50;;;;;;4940905;29;20542;-88
2022/04/23 11:39:07;;;;;;;4.70;4.03;;;17.40;78.30;;;;;;4940147;29;20202;-90
2022/04/23 11:41:39;;;;;;;4.18;3.42;;;17.20;76.90;;;;;;4939332;29;20234;-90
2022/04/23 11:47:11;;;;;;;3.95;3.55;;;17.30;76.80;;;;;;4941337;29;20185;-91
2022/04/23 11:49:37;;;;;;;5.20;3.25;;;17.30;77.00;;;;;;4939237;29;20198;-91
2022/04/23 11:52:14;;;;;;;3.60;3.30;;;17.20;76.10;;;;;;4939718;29;20170;-90
2022/04/23 11:54:48;;;;;;;3.70;3.08;;;17.20;75.50;;;;;;4938627;29;20193;-90
2022/04/23 11:57:25;;;;;;;4.88;3.80;;;17.40;74.60;;;;;;4939792;29;20177;-88
2022/04/23 11:59:50;;;;;;;5.50;4.10;;;17.30;75.90;;;;;;4939066;29;20288;-90
2022/04/23 12:02:31;;;;;;;4.00;2.78;;;17.10;76.80;;;;;;4938538;29;20233;-89
2022/04/23 12:05:00;;;;;;;3.47;3.17;;;17.10;73.90;;;;;;4938961;29;20291;-93
2022/04/23 12:07:27;;;;;;;4.25;3.45;;;17.40;75.40;;;;;;4938947;29;20226;-90
2022/04/23 12:09:55;;;;;;;3.72;3.10;;;17.50;74.50;;;;;;4939304;29;20201;-90
2022/04/23 12:12:25;;;;;;;5.78;2.88;;;17.60;75.70;;;;;;4938787;29;20236;-90
2022/04/23 12:15:04;;;;;;;3.38;2.97;;;17.80;75.50;;;;;;4939108;29;20170;-89
2022/04/23 12:17:42;;;;;;;3.22;2.90;;;17.80;74.60;;;;;;4938173;29;20626;-90
2022/04/23 12:20:19;;;;;;;6.40;2.58;;;17.90;73.20;;;;;;4937641;29;20205;-91
2022/04/23 12:23:05;;;;;;;6.03;2.97;;;18.10;74.70;;;;;;4939391;29;20177;-90
2022/04/23 12:25:32;;;;;;;3.10;2.80;;;18.00;70.50;;;;;;4938436;29;20213;-93
2022/04/23 12:42:11;;;;;;;4.80;3.05;;;17.80;72.30;;;;;;4901151;29;20194;-89
2022/04/23 12:44:41;;;;;;;5.18;2.80;;;17.90;71.10;;;;;;4900563;29;20203;-90
2022/04/23 12:47:18;;;;;;;3.22;2.85;;;18.00;71.20;;;;;;4901507;29;20578;-91
2022/04/23 12:49:45;;;;;;;4.85;3.42;;;18.20;72.80;;;;;;4901034;29;20207;-91
2022/04/23 12:52:40;;;;;;;5.70;3.78;;;18.30;73.40;;;;;;4898994;29;20234;-92
2022/04/23 12:55:15;;;;;;;3.83;3.40;;;18.50;73.40;;;;;;4897643;29;20199;-90
2022/04/23 12:57:58;;;;;;;6.00;3.67;;;18.60;72.30;;;;;;4920252;29;20178;-90
2022/04/23 13:00:25;;;;;;;4.00;3.60;;;18.30;70.30;;;;;;4919918;29;20206;-89
2022/04/23 13:02:56;;;;;;;4.15;3.58;;;18.10;70.10;;;;;;4918757;29;20589;-91
2022/04/23 13:05:22;;;;;;;3.92;3.50;;;18.10;71.20;;;;;;4919337;29;20686;-88
2022/04/23 13:10:33;;;;;;;4.00;3.58;;;18.40;71.80;;;;;;4920774;29;20204;-90
2022/04/23 13:12:59;;;;;;;4.55;3.55;;;18.30;70.00;;;;;;4918726;29;20265;-91
2022/04/23 13:15:26;;;;;;;3.70;3.33;;;18.20;70.90;;;;;;4918987;29;20242;-91
2022/04/23 13:17:52;;;;;;;5.07;3.58;;;18.10;70.70;;;;;;4917464;29;20179;-89
2022/04/23 13:20:21;;;;;;;3.55;3.08;;;18.30;70.20;;;;;;4917489;29;20210;-89
2022/04/23 13:22:48;;;;;;;5.30;3.22;;;18.10;71.10;;;;;;4918258;29;20198;-92
2022/04/23 13:25:16;;;;;;;2.90;2.60;;;18.30;71.00;;;;;;4914699;29;20232;-89
2022/04/23 13:27:43;;;;;;;4.40;2.30;;;18.40;70.50;;;;;;4898532;29;20274;-92
2022/04/23 13:30:10;;;;;;;2.80;2.50;;;18.40;68.20;;;;;;4899002;29;20199;-88
2022/04/23 13:32:39;;;;;;;3.83;2.65;;;18.30;67.20;;;;;;4899161;29;20175;-90
2022/04/23 13:35:12;;;;;;;2.95;2.10;;;18.10;67.60;;;;;;4899916;29;20179;-91
2022/04/23 13:37:39;;;;;;;4.03;2.60;;;18.10;70.00;;;;;;4899412;29;20178;-90
2022/04/23 13:40:07;;;;;;;8.35;2.65;;;18.20;68.10;;;;;;4905057;29;20237;-92
2022/04/23 13:42:34;;;;;;;4.63;2.47;;;18.40;68.50;;;;;;4936829;29;20182;-89